Time;durP1;ratioP1;P1;durP2;ratioP2;P2;SDS_P1;SDS_P2;PMS_P1;PMS_P2;Temp;Humidity;BMP_temperature;BMP_pressure;BME280_temperature;BME280_humidity;BME280_pressure;Samples;Min_cycle;Max_cycle;Signal;HPM_P1;HPM_P2
2021/01/15 00:01:35;;;;;;;15.55;8.60;;;0.30;99.90;;;;;;4837848;29;20145;-62
2021/01/15 00:04:02;;;;;;;16.23;8.90;;;0.30;99.90;;;;;;4819694;29;20064;-62
2021/01/15 00:06:29;;;;;;;15.10;8.52;;;0.30;99.90;;;;;;4833457;29;20099;-62
2021/01/15 00:08:56;;;;;;;17.35;8.10;;;0.30;99.90;;;;;;4838564;29;20144;-62
2021/01/15 00:11:29;;;;;;;13.65;8.10;;;0.40;99.90;;;;;;4838536;29;20033;-62
2021/01/15 00:13:57;;;;;;;14.77;8.23;;;0.40;99.90;;;;;;4836946;29;20137;-62
2021/01/15 00:16:31;;;;;;;14.20;8.68;;;0.40;99.90;;;;;;4821950;29;20029;-62
2021/01/15 00:18:59;;;;;;;15.00;8.05;;;0.40;99.90;;;;;;4837027;29;20037;-62
2021/01/15 00:21:33;;;;;;;13.85;7.75;;;0.40;99.90;;;;;;4837053;29;20045;-62
2021/01/15 00:24:04;;;;;;;14.98;8.30;;;0.40;99.90;;;;;;4838258;29;20049;-62
2021/01/15 00:26:32;;;;;;;14.98;7.57;;;0.40;99.90;;;;;;4835889;29;20021;-62
2021/01/15 00:28:58;;;;;;;15.90;8.13;;;0.40;99.90;;;;;;4837677;29;20040;-62
2021/01/15 00:31:35;;;;;;;14.80;8.13;;;0.50;99.90;;;;;;4838073;29;20034;-62
2021/01/15 00:34:03;;;;;;;12.88;7.05;;;0.50;99.90;;;;;;4836331;29;20038;-62
2021/01/15 00:36:29;;;;;;;12.77;7.55;;;0.50;99.90;;;;;;4838599;29;20041;-62
2021/01/15 00:38:55;;;;;;;14.45;7.50;;;0.50;99.90;;;;;;4836863;29;20041;-61
2021/01/15 00:41:20;;;;;;;15.48;7.40;;;0.50;99.90;;;;;;4836050;29;20045;-62
2021/01/15 00:43:46;;;;;;;13.73;7.57;;;0.50;99.90;;;;;;4836518;29;20037;-62
2021/01/15 00:46:34;;;;;;;12.90;7.38;;;0.50;99.90;;;;;;4838603;29;20643;-62
2021/01/15 00:49:05;;;;;;;13.30;7.53;;;0.50;99.90;;;;;;4838053;29;20138;-62
2021/01/15 00:51:32;;;;;;;13.07;7.78;;;0.40;99.90;;;;;;4836229;29;20148;-62
2021/01/15 00:53:59;;;;;;;11.85;7.45;;;0.40;99.90;;;;;;4836800;29;20030;-62
2021/01/15 00:56:25;;;;;;;12.80;7.57;;;0.30;99.90;;;;;;4836097;29;20532;-62
2021/01/15 00:58:52;;;;;;;13.98;7.55;;;0.30;99.90;;;;;;4836121;29;20048;-62
2021/01/15 01:01:19;;;;;;;14.07;7.63;;;0.30;99.90;;;;;;4837708;29;20030;-62
2021/01/15 01:03:46;;;;;;;13.63;7.85;;;0.20;99.90;;;;;;4835534;29;20139;-61
2021/01/15 01:06:18;;;;;;;13.73;8.68;;;0.20;99.90;;;;;;4837491;29;20037;-61
2021/01/15 01:08:44;;;;;;;15.35;8.00;;;0.10;99.90;;;;;;4836843;29;20033;-62
2021/01/15 01:11:15;;;;;;;17.45;9.25;;;0.00;99.90;;;;;;4836959;29;20038;-61
2021/01/15 01:13:41;;;;;;;15.05;8.95;;;0.00;99.90;;;;;;4835937;29;20034;-62
2021/01/15 01:16:07;;;;;;;14.38;8.38;;;0.00;99.90;;;;;;4836519;29;20031;-62
2021/01/15 01:18:35;;;;;;;14.65;8.18;;;0.00;99.90;;;;;;4837977;29;20110;-61
2021/01/15 01:21:04;;;;;;;15.07;8.60;;;-0.10;99.90;;;;;;4820091;29;20029;-62
2021/01/15 01:23:30;;;;;;;14.80;7.70;;;-0.20;99.90;;;;;;4818825;29;20484;-61
2021/01/15 01:25:56;;;;;;;15.85;8.73;;;-0.20;99.90;;;;;;4835766;29;20034;-62
2021/01/15 01:28:22;;;;;;;14.55;8.60;;;-0.20;99.90;;;;;;4836735;29;20418;-62
2021/01/15 01:30:48;;;;;;;15.38;9.23;;;-0.20;99.90;;;;;;4835297;29;20121;-61
2021/01/15 01:33:14;;;;;;;14.73;8.90;;;-0.20;99.90;;;;;;4833689;29;20041;-61
2021/01/15 01:35:40;;;;;;;16.73;9.00;;;-0.20;99.90;;;;;;4836067;29;20040;-62
2021/01/15 01:38:06;;;;;;;14.32;8.13;;;-0.20;99.90;;;;;;4833401;29;20116;-61
2021/01/15 01:40:31;;;;;;;13.65;8.13;;;-0.20;99.90;;;;;;4837712;29;20056;-61
2021/01/15 01:42:57;;;;;;;15.35;8.60;;;-0.20;99.90;;;;;;4836083;29;20048;-61
2021/01/15 01:45:23;;;;;;;16.08;9.18;;;-0.20;99.90;;;;;;4834908;29;20049;-61
2021/01/15 01:47:49;;;;;;;14.45;8.30;;;-0.20;99.90;;;;;;4837081;29;20132;-61
2021/01/15 01:50:15;;;;;;;15.57;8.85;;;-0.20;99.90;;;;;;4835928;29;20033;-62
2021/01/15 01:52:42;;;;;;;17.23;9.52;;;-0.10;99.90;;;;;;4836442;29;20026;-61
2021/01/15 01:55:08;;;;;;;16.27;9.30;;;-0.20;99.90;;;;;;4834748;29;20030;-62
2021/01/15 01:57:35;;;;;;;16.38;9.38;;;-0.10;99.90;;;;;;4835353;29;20040;-61
2021/01/15 02:00:00;;;;;;;17.27;9.52;;;-0.10;99.90;;;;;;4835921;29;20065;-61
2021/01/15 02:02:27;;;;;;;15.52;8.48;;;-0.10;99.90;;;;;;4834764;29;20124;-61
2021/01/15 02:04:52;;;;;;;14.40;8.90;;;-0.10;99.90;;;;;;4834089;29;20037;-61
2021/01/15 02:07:19;;;;;;;14.00;8.82;;;-0.10;99.90;;;;;;4836311;29;20045;-61
2021/01/15 02:10:02;;;;;;;16.23;9.82;;;-0.10;99.90;;;;;;4835595;29;20081;-61
2021/01/15 02:12:41;;;;;;;14.63;8.65;;;-0.10;99.90;;;;;;4834982;29;20782;-61
2021/01/15 02:15:16;;;;;;;14.32;8.32;;;-0.20;99.90;;;;;;4833538;29;20037;-61
2021/01/15 02:17:53;;;;;;;15.90;9.00;;;-0.10;99.90;;;;;;4836154;29;20045;-61
2021/01/15 02:20:44;;;;;;;16.50;8.98;;;-0.10;99.90;;;;;;4834113;29;20117;-61
2021/01/15 02:23:24;;;;;;;15.38;9.55;;;-0.10;99.90;;;;;;4796889;29;20045;-62
2021/01/15 02:26:04;;;;;;;14.70;8.63;;;-0.10;99.90;;;;;;4836198;29;20030;-62
2021/01/15 02:28:46;;;;;;;16.20;10.30;;;-0.10;99.90;;;;;;4835916;29;20461;-61
2021/01/15 02:31:45;;;;;;;15.52;9.82;;;-0.10;99.90;;;;;;4836679;29;20042;-62
2021/01/15 02:34:29;;;;;;;14.82;9.07;;;0.00;99.90;;;;;;4816717;29;20122;-61
2021/01/15 02:37:27;;;;;;;13.32;8.65;;;0.00;99.90;;;;;;4816457;29;20461;-61
2021/01/15 02:40:02;;;;;;;16.73;9.70;;;0.00;99.90;;;;;;4787621;29;20038;-61
2021/01/15 02:42:32;;;;;;;15.38;9.30;;;-0.10;99.90;;;;;;4801174;29;20045;-61
2021/01/15 02:45:00;;;;;;;17.70;8.80;;;0.00;99.90;;;;;;4816117;29;20112;-62
2021/01/15 02:47:49;;;;;;;17.50;9.38;;;-0.10;99.90;;;;;;4817575;29;20049;-62
2021/01/15 02:50:24;;;;;;;15.23;8.18;;;-0.10;99.90;;;;;;4817282;29;20689;-62
2021/01/15 02:52:50;;;;;;;13.93;8.35;;;0.10;99.90;;;;;;4817502;29;20517;-61
2021/01/15 02:55:17;;;;;;;15.25;8.70;;;0.00;99.90;;;;;;4814700;29;20475;-61
2021/01/15 02:57:43;;;;;;;14.65;8.88;;;0.00;99.90;;;;;;4817277;29;20122;-62
2021/01/15 03:00:18;;;;;;;18.98;8.95;;;0.00;99.90;;;;;;4818315;29;20038;-62
2021/01/15 03:03:03;;;;;;;15.93;9.00;;;0.00;99.90;;;;;;4814763;29;20570;-61
2021/01/15 03:05:38;;;;;;;13.57;8.73;;;0.00;99.90;;;;;;4817009;29;20031;-62
2021/01/15 03:08:05;;;;;;;14.82;8.90;;;0.00;99.90;;;;;;4819031;29;20579;-62
2021/01/15 03:10:33;;;;;;;16.00;9.60;;;0.00;99.90;;;;;;4818182;29;20034;-61
2021/01/15 03:13:02;;;;;;;17.05;8.88;;;0.00;99.90;;;;;;4816311;29;20042;-62
2021/01/15 03:15:31;;;;;;;16.67;9.27;;;-0.10;99.90;;;;;;4816464;29;20105;-62
2021/01/15 03:17:58;;;;;;;16.40;9.77;;;-0.10;99.90;;;;;;4817144;29;20046;-61
2021/01/15 03:20:24;;;;;;;16.30;8.27;;;-0.10;99.90;;;;;;4816391;29;20054;-61
2021/01/15 03:22:51;;;;;;;18.38;9.63;;;-0.10;99.90;;;;;;4815831;29;20401;-61
2021/01/15 03:25:18;;;;;;;18.13;10.07;;;-0.10;99.90;;;;;;4818182;29;20038;-62
2021/01/15 03:27:52;;;;;;;18.40;9.95;;;-0.10;99.90;;;;;;4817212;29;20034;-61
2021/01/15 03:30:19;;;;;;;16.67;9.43;;;-0.10;99.90;;;;;;4816272;29;20041;-62
2021/01/15 03:32:46;;;;;;;18.08;10.77;;;0.00;99.90;;;;;;4827083;29;20157;-61
2021/01/15 03:35:22;;;;;;;13.75;8.68;;;-0.10;99.90;;;;;;4833799;29;20619;-62
2021/01/15 03:38:00;;;;;;;16.88;10.02;;;-0.10;99.90;;;;;;4838782;29;20983;-61
2021/01/15 03:40:39;;;;;;;15.23;9.95;;;-0.10;99.90;;;;;;4838655;29;20112;-62
2021/01/15 03:43:15;;;;;;;16.10;9.27;;;-0.10;99.90;;;;;;4837489;29;20045;-62
2021/01/15 03:45:52;;;;;;;17.08;8.52;;;-0.10;99.90;;;;;;4838586;29;20038;-61
2021/01/15 03:48:20;;;;;;;18.23;10.35;;;-0.10;99.90;;;;;;4837665;29;20876;-61
2021/01/15 03:50:46;;;;;;;16.65;9.82;;;-0.20;99.90;;;;;;4836561;29;20417;-61
2021/01/15 03:53:15;;;;;;;19.02;10.30;;;-0.10;99.90;;;;;;4838548;29;20038;-61
2021/01/15 03:55:41;;;;;;;15.27;8.35;;;-0.10;99.90;;;;;;4837694;29;20034;-61
2021/01/15 03:58:07;;;;;;;17.65;10.63;;;-0.10;99.90;;;;;;4836882;29;20793;-62
2021/01/15 04:00:33;;;;;;;16.33;9.18;;;0.00;99.90;;;;;;4836384;29;20122;-61
2021/01/15 04:02:59;;;;;;;15.63;8.73;;;-0.10;99.90;;;;;;4836540;29;20040;-61
2021/01/15 04:05:25;;;;;;;14.63;8.52;;;0.00;99.90;;;;;;4836438;29;20034;-61
2021/01/15 04:07:50;;;;;;;15.10;8.40;;;0.00;99.90;;;;;;4807978;29;20030;-61
2021/01/15 04:10:18;;;;;;;15.02;9.00;;;0.00;99.90;;;;;;4838104;29;20038;-62
2021/01/15 04:12:44;;;;;;;13.82;8.52;;;0.00;99.90;;;;;;4837263;29;20117;-61
2021/01/15 04:15:12;;;;;;;15.80;8.43;;;0.00;99.90;;;;;;4839625;29;20680;-62
2021/01/15 04:17:38;;;;;;;15.20;8.23;;;0.00;99.90;;;;;;4837249;29;20130;-61
2021/01/15 04:20:06;;;;;;;15.10;8.45;;;0.00;99.90;;;;;;4835857;29;20887;-61
2021/01/15 04:22:40;;;;;;;19.73;9.73;;;0.00;99.90;;;;;;4808481;29;20468;-61
2021/01/15 04:25:07;;;;;;;17.25;8.65;;;0.00;99.90;;;;;;4834112;29;20037;-61
2021/01/15 04:27:35;;;;;;;16.95;8.90;;;-0.10;99.90;;;;;;4835546;29;20877;-61
2021/01/15 04:30:03;;;;;;;15.90;8.52;;;-0.10;99.90;;;;;;4835380;29;20069;-61
2021/01/15 04:32:30;;;;;;;15.15;8.13;;;-0.10;99.90;;;;;;4837530;29;20046;-62
2021/01/15 04:34:56;;;;;;;15.80;8.95;;;-0.10;99.90;;;;;;4832880;29;20065;-61
2021/01/15 04:37:22;;;;;;;14.10;7.75;;;-0.10;99.90;;;;;;4831495;29;20033;-69
2021/01/15 04:39:47;;;;;;;14.57;8.57;;;-0.10;99.90;;;;;;4837912;29;20034;-69
2021/01/15 04:42:15;;;;;;;13.35;7.45;;;0.00;99.90;;;;;;4836470;29;20048;-69
2021/01/15 04:44:43;;;;;;;15.30;8.10;;;-0.10;99.90;;;;;;4837565;29;20112;-69
2021/01/15 04:47:09;;;;;;;15.90;8.68;;;-0.10;99.90;;;;;;4836545;29;20136;-69
2021/01/15 04:49:36;;;;;;;14.65;8.25;;;-0.10;99.90;;;;;;4838010;29;20041;-69
2021/01/15 04:52:03;;;;;;;15.70;8.07;;;-0.20;99.90;;;;;;4834253;29;20081;-69
2021/01/15 04:54:38;;;;;;;16.48;9.13;;;-0.30;99.90;;;;;;4820205;29;20037;-69
2021/01/15 04:57:09;;;;;;;15.45;8.60;;;-0.30;99.90;;;;;;4836812;29;20037;-69
2021/01/15 04:59:44;;;;;;;14.50;7.15;;;-0.20;99.90;;;;;;4833852;29;20247;-69
2021/01/15 05:02:12;;;;;;;17.88;8.80;;;-0.20;99.90;;;;;;4838199;29;20038;-69
2021/01/15 05:04:39;;;;;;;14.10;7.72;;;-0.30;99.90;;;;;;4838155;29;20052;-69
2021/01/15 05:07:07;;;;;;;14.30;7.43;;;-0.30;99.90;;;;;;4837117;29;20038;-68
2021/01/15 05:09:44;;;;;;;16.60;8.32;;;-0.30;99.90;;;;;;4836112;29;20159;-69
2021/01/15 05:12:15;;;;;;;15.02;8.00;;;-0.40;99.90;;;;;;4837825;29;20040;-69
2021/01/15 05:14:50;;;;;;;15.55;8.85;;;-0.50;99.90;;;;;;4838234;29;20033;-69
2021/01/15 05:17:17;;;;;;;18.42;9.40;;;-0.50;99.90;;;;;;4836908;29;20037;-69
2021/01/15 05:19:44;;;;;;;15.18;8.07;;;-0.50;99.90;;;;;;4836386;29;20041;-69
2021/01/15 05:22:11;;;;;;;23.27;11.43;;;-0.60;99.90;;;;;;4836779;29;20063;-68
2021/01/15 05:24:37;;;;;;;18.48;9.48;;;-0.60;99.90;;;;;;4836186;29;20060;-68
2021/01/15 05:30:21;;;;;;;15.05;7.80;;;-0.50;99.90;;;;;;4836362;29;20061;-69
2021/01/15 05:32:48;;;;;;;15.05;8.85;;;-0.40;99.90;;;;;;4832079;29;21053;-70
2021/01/15 05:35:15;;;;;;;15.50;8.18;;;-0.40;99.90;;;;;;4834691;29;20228;-69
2021/01/15 05:37:42;;;;;;;13.40;8.05;;;-0.40;99.90;;;;;;4835123;29;20056;-70
2021/01/15 05:40:10;;;;;;;18.10;7.78;;;-0.40;99.90;;;;;;4814494;29;20522;-69
2021/01/15 05:42:49;;;;;;;12.27;6.80;;;-0.30;99.90;;;;;;4831877;29;20071;-69
2021/01/15 05:45:16;;;;;;;12.93;7.35;;;-0.20;99.90;;;;;;4837572;29;20042;-69
2021/01/15 05:47:44;;;;;;;12.75;6.57;;;-0.20;99.90;;;;;;4835654;29;20050;-70
2021/01/15 05:50:11;;;;;;;14.30;8.27;;;-0.30;99.90;;;;;;4833936;29;20041;-69
2021/01/15 05:52:52;;;;;;;12.63;7.10;;;-0.30;99.90;;;;;;4833112;29;20032;-69
2021/01/15 05:55:18;;;;;;;11.68;6.82;;;-0.20;99.90;;;;;;4833950;29;20037;-70
2021/01/15 05:57:48;;;;;;;12.13;6.97;;;-0.20;99.90;;;;;;4837743;29;20054;-69
2021/01/15 06:00:33;;;;;;;13.23;6.80;;;-0.20;99.90;;;;;;4836612;29;20034;-70
2021/01/15 06:03:04;;;;;;;12.90;6.88;;;-0.20;99.90;;;;;;4831310;29;20109;-69
2021/01/15 06:05:32;;;;;;;18.23;7.57;;;-0.20;99.90;;;;;;4815036;29;20124;-70
2021/01/15 06:07:58;;;;;;;12.68;7.05;;;-0.20;99.90;;;;;;4834907;29;20037;-69
2021/01/15 06:10:25;;;;;;;11.93;6.28;;;-0.20;99.90;;;;;;4835048;29;20044;-69
2021/01/15 06:12:51;;;;;;;13.60;6.28;;;-0.20;99.90;;;;;;4835339;29;20057;-69
2021/01/15 06:15:17;;;;;;;13.48;6.40;;;-0.20;99.90;;;;;;4836724;29;20592;-70
2021/01/15 06:17:55;;;;;;;12.15;6.85;;;-0.20;99.90;;;;;;4837057;29;20069;-69
2021/01/15 06:20:22;;;;;;;13.55;6.90;;;-0.20;99.90;;;;;;4836819;29;20045;-70
2021/01/15 06:22:54;;;;;;;12.32;6.00;;;-0.20;99.90;;;;;;4834624;29;20029;-69
2021/01/15 06:25:24;;;;;;;15.68;8.80;;;-0.10;99.90;;;;;;4837582;29;20034;-69
2021/01/15 06:27:55;;;;;;;15.10;6.75;;;-0.10;99.90;;;;;;4837872;29;20035;-69
2021/01/15 06:30:29;;;;;;;13.10;7.25;;;-0.10;99.90;;;;;;4837077;29;20034;-69
2021/01/15 06:33:13;;;;;;;13.82;7.43;;;-0.10;99.90;;;;;;4834811;29;20053;-69
2021/01/15 06:35:43;;;;;;;13.57;6.95;;;-0.10;99.90;;;;;;4834691;29;20756;-70
2021/01/15 06:38:12;;;;;;;13.20;7.05;;;-0.10;99.90;;;;;;4833595;29;20141;-69
2021/01/15 06:40:39;;;;;;;10.30;6.25;;;-0.10;99.90;;;;;;4837157;29;20042;-69
2021/01/15 06:43:28;;;;;;;11.20;6.47;;;-0.20;99.90;;;;;;4836520;29;20030;-69
2021/01/15 06:46:05;;;;;;;13.55;6.53;;;-0.20;99.90;;;;;;4836321;29;20037;-69
2021/01/15 06:48:35;;;;;;;11.05;5.63;;;-0.10;99.90;;;;;;4837080;29;20065;-69
2021/01/15 06:51:03;;;;;;;12.65;5.80;;;-0.20;99.90;;;;;;4836656;29;20030;-69
2021/01/15 06:53:31;;;;;;;11.00;5.75;;;-0.30;99.90;;;;;;4836434;29;20117;-69
2021/01/15 06:56:05;;;;;;;10.88;5.65;;;-0.30;99.90;;;;;;4837056;29;20440;-69
2021/01/15 06:58:37;;;;;;;9.70;5.07;;;-0.30;99.90;;;;;;4820976;29;20041;-69
2021/01/15 07:01:30;;;;;;;8.60;4.68;;;-0.30;99.90;;;;;;4836842;29;20107;-69
2021/01/15 07:04:02;;;;;;;14.32;5.25;;;-0.30;99.90;;;;;;4836491;29;20565;-69
2021/01/15 07:06:35;;;;;;;9.50;4.03;;;-0.20;99.90;;;;;;4837390;29;20030;-69
2021/01/15 07:09:06;;;;;;;7.95;4.55;;;-0.30;99.90;;;;;;4835419;29;20029;-69
2021/01/15 07:11:33;;;;;;;9.68;4.60;;;-0.30;99.90;;;;;;4839502;29;20039;-69
2021/01/15 07:14:01;;;;;;;8.88;4.70;;;-0.20;99.90;;;;;;4840268;29;20026;-69
2021/01/15 07:16:29;;;;;;;11.02;5.38;;;-0.30;99.90;;;;;;4839345;29;20048;-69
2021/01/15 07:19:15;;;;;;;10.27;5.60;;;-0.30;99.90;;;;;;4837876;29;20102;-69
2021/01/15 07:21:56;;;;;;;10.52;5.05;;;-0.30;99.90;;;;;;4840252;29;20030;-69
2021/01/15 07:24:31;;;;;;;13.63;6.30;;;-0.30;99.90;;;;;;4839849;29;20561;-69
2021/01/15 07:27:01;;;;;;;12.38;5.97;;;-0.30;99.90;;;;;;4841143;29;20386;-69
2021/01/15 07:29:29;;;;;;;14.02;6.63;;;-0.30;99.90;;;;;;4809433;29;20040;-69
2021/01/15 07:32:02;;;;;;;10.43;5.57;;;-0.30;99.90;;;;;;4841237;29;20052;-69
2021/01/15 07:34:30;;;;;;;10.30;5.75;;;-0.30;99.90;;;;;;4839417;29;20045;-69
2021/01/15 07:36:56;;;;;;;7.00;4.13;;;-0.20;99.90;;;;;;4840475;29;20057;-69
2021/01/15 07:39:27;;;;;;;9.73;5.15;;;-0.20;99.90;;;;;;4819878;29;20050;-69
2021/01/15 07:41:53;;;;;;;7.82;4.00;;;-0.20;99.90;;;;;;4840439;29;20542;-69
2021/01/15 07:44:25;;;;;;;8.25;4.25;;;-0.10;99.90;;;;;;4839333;29;20069;-69
2021/01/15 07:47:00;;;;;;;7.63;3.55;;;-0.20;99.90;;;;;;4840863;29;20114;-69
2021/01/15 07:49:45;;;;;;;8.10;4.00;;;-0.20;99.90;;;;;;4839808;29;20057;-69
2021/01/15 07:52:12;;;;;;;7.65;3.67;;;-0.20;99.90;;;;;;4840454;29;20786;-69
2021/01/15 07:54:49;;;;;;;7.68;4.35;;;-0.20;99.90;;;;;;4840886;29;20030;-69
2021/01/15 07:57:18;;;;;;;11.88;4.47;;;-0.30;99.90;;;;;;4840127;29;20053;-69
2021/01/15 07:59:45;;;;;;;7.63;3.78;;;-0.20;99.90;;;;;;4839998;29;20045;-69
2021/01/15 08:02:11;;;;;;;8.52;3.92;;;-0.20;99.90;;;;;;4840198;29;20482;-69
2021/01/15 08:04:37;;;;;;;5.60;3.63;;;-0.20;99.90;;;;;;4822098;29;20769;-69
2021/01/15 08:07:30;;;;;;;6.57;3.47;;;-0.20;99.90;;;;;;4838242;29;20037;-69
2021/01/15 08:09:56;;;;;;;7.25;3.72;;;-0.20;99.90;;;;;;4823637;29;20037;-69
2021/01/15 08:12:22;;;;;;;8.93;4.03;;;-0.10;99.90;;;;;;4840385;29;20037;-69
2021/01/15 08:14:48;;;;;;;7.82;4.05;;;-0.10;99.90;;;;;;4838629;29;20034;-69
2021/01/15 08:17:25;;;;;;;9.20;4.10;;;-0.10;99.90;;;;;;4840381;29;20034;-69
2021/01/15 08:19:51;;;;;;;8.52;4.43;;;-0.20;99.90;;;;;;4838810;29;20041;-69
2021/01/15 08:22:18;;;;;;;8.73;4.07;;;-0.30;99.90;;;;;;4838040;29;20030;-69
2021/01/15 08:24:45;;;;;;;8.48;4.20;;;-0.30;99.90;;;;;;4839315;29;20556;-69
2021/01/15 08:27:22;;;;;;;8.15;4.20;;;-0.30;99.90;;;;;;4839819;29;20033;-70
2021/01/15 08:29:50;;;;;;;10.65;4.55;;;-0.30;99.90;;;;;;4840430;29;20781;-69
2021/01/15 08:32:16;;;;;;;10.27;4.28;;;-0.20;99.90;;;;;;4839216;29;20057;-69
2021/01/15 08:34:44;;;;;;;7.80;4.25;;;-0.20;99.90;;;;;;4837366;29;20120;-69
2021/01/15 08:37:12;;;;;;;9.60;4.57;;;-0.20;99.90;;;;;;4822918;29;20757;-69
2021/01/15 08:39:54;;;;;;;9.00;4.25;;;-0.10;99.90;;;;;;4836431;29;20034;-69
2021/01/15 08:42:21;;;;;;;8.07;3.97;;;-0.10;99.90;;;;;;4837612;29;20572;-69
2021/01/15 08:44:48;;;;;;;9.73;4.57;;;0.00;99.90;;;;;;4838393;29;20033;-69
2021/01/15 08:47:17;;;;;;;7.07;3.65;;;0.00;99.90;;;;;;4839038;29;20033;-69
2021/01/15 08:49:56;;;;;;;8.50;3.28;;;0.00;99.90;;;;;;4837775;29;20046;-69
2021/01/15 08:52:25;;;;;;;8.05;4.57;;;-0.10;99.90;;;;;;4838664;29;20049;-69
2021/01/15 08:54:52;;;;;;;8.85;3.60;;;-0.10;99.90;;;;;;4838459;29;20141;-69
2021/01/15 08:57:19;;;;;;;10.20;4.28;;;-0.10;99.90;;;;;;4839643;29;20036;-69
2021/01/15 08:59:45;;;;;;;7.30;3.65;;;-0.10;99.90;;;;;;4838188;29;20154;-68
2021/01/15 09:02:12;;;;;;;9.90;4.07;;;-0.20;99.90;;;;;;4808489;29;20034;-69
2021/01/15 09:04:43;;;;;;;6.13;3.35;;;0.00;99.90;;;;;;4835847;29;20124;-69
2021/01/15 09:07:09;;;;;;;7.35;3.58;;;0.00;99.90;;;;;;4837805;29;20612;-69
2021/01/15 09:09:37;;;;;;;9.98;4.07;;;0.10;99.90;;;;;;4839980;29;20040;-69
2021/01/15 09:12:05;;;;;;;10.82;4.88;;;0.00;99.90;;;;;;4839114;29;20122;-69
2021/01/15 09:14:35;;;;;;;12.45;5.50;;;0.00;99.90;;;;;;4838103;29;20177;-69
2021/01/15 09:17:06;;;;;;;10.57;4.75;;;-0.10;99.90;;;;;;4837036;29;20026;-69
2021/01/15 09:19:33;;;;;;;11.45;5.28;;;-0.10;99.90;;;;;;4835238;29;20052;-69
2021/01/15 09:22:01;;;;;;;11.88;5.13;;;-0.10;99.90;;;;;;4837478;29;20034;-68
2021/01/15 09:24:34;;;;;;;10.50;5.50;;;0.00;99.90;;;;;;4837503;29;20057;-69
2021/01/15 09:27:02;;;;;;;17.02;6.47;;;0.00;99.90;;;;;;4838908;29;20041;-69
2021/01/15 09:29:28;;;;;;;11.45;4.50;;;0.00;99.90;;;;;;4838447;29;20074;-69
2021/01/15 09:31:55;;;;;;;10.07;4.43;;;0.00;99.90;;;;;;4838910;29;20697;-69
2021/01/15 09:34:22;;;;;;;7.15;4.47;;;-0.10;99.90;;;;;;4834865;29;20065;-69
2021/01/15 09:36:50;;;;;;;7.78;4.13;;;-0.10;99.90;;;;;;4839265;29;20122;-69
2021/01/15 09:39:18;;;;;;;9.65;4.65;;;0.00;99.90;;;;;;4836172;29;20087;-69
2021/01/15 09:41:49;;;;;;;12.32;4.95;;;-0.10;99.90;;;;;;4836462;29;20049;-69
2021/01/15 09:44:16;;;;;;;10.35;4.90;;;-0.10;99.90;;;;;;4836275;29;20034;-69
2021/01/15 09:46:43;;;;;;;8.20;4.20;;;-0.20;99.90;;;;;;4838593;29;20033;-69
2021/01/15 09:49:08;;;;;;;11.38;5.28;;;-0.20;99.90;;;;;;4837864;29;20530;-69
2021/01/15 09:51:34;;;;;;;9.00;4.55;;;-0.20;99.90;;;;;;4839381;29;20084;-69
2021/01/15 09:54:00;;;;;;;9.35;4.72;;;-0.30;99.90;;;;;;4835702;29;20038;-69
2021/01/15 09:56:33;;;;;;;22.33;6.72;;;-0.20;99.90;;;;;;4838544;29;20117;-69
2021/01/15 09:59:02;;;;;;;9.32;5.10;;;-0.20;99.90;;;;;;4837680;29;20052;-70
2021/01/15 10:01:29;;;;;;;9.07;4.35;;;-0.10;99.90;;;;;;4837515;29;20080;-69
2021/01/15 10:03:57;;;;;;;9.32;4.10;;;-0.10;99.90;;;;;;4836231;29;20070;-69
2021/01/15 10:06:24;;;;;;;10.65;4.97;;;-0.10;99.90;;;;;;4837044;29;20045;-69
2021/01/15 10:08:50;;;;;;;6.40;3.60;;;0.00;99.90;;;;;;4835992;29;20336;-70
2021/01/15 10:11:24;;;;;;;7.57;3.17;;;0.00;99.90;;;;;;4836684;29;20506;-69
2021/01/15 10:13:52;;;;;;;6.78;3.50;;;0.00;99.90;;;;;;4820218;29;20064;-69
2021/01/15 10:16:18;;;;;;;7.75;3.45;;;-0.10;99.90;;;;;;4838546;29;20037;-69
2021/01/15 10:18:44;;;;;;;6.20;3.40;;;-0.10;99.90;;;;;;4838423;29;20513;-69
2021/01/15 10:21:10;;;;;;;8.00;3.35;;;-0.10;99.90;;;;;;4834977;29;20512;-69
2021/01/15 10:23:37;;;;;;;8.85;4.00;;;0.00;99.90;;;;;;4819391;29;20691;-69
2021/01/15 10:26:04;;;;;;;8.77;4.18;;;0.00;99.90;;;;;;4837252;29;20055;-69
2021/01/15 10:28:30;;;;;;;10.60;4.40;;;0.00;99.90;;;;;;4836878;29;20674;-69
2021/01/15 10:30:57;;;;;;;7.57;3.92;;;0.20;99.90;;;;;;4837904;29;20031;-69
2021/01/15 10:33:23;;;;;;;10.65;5.50;;;0.20;99.90;;;;;;4835826;29;20784;-68
2021/01/15 10:35:52;;;;;;;11.73;5.72;;;0.30;99.90;;;;;;4834830;29;20040;-68
2021/01/15 10:38:18;;;;;;;10.70;5.67;;;0.40;99.90;;;;;;4836801;29;20052;-69
2021/01/15 10:40:47;;;;;;;8.27;4.10;;;0.40;99.90;;;;;;4836708;29;20034;-69
2021/01/15 10:43:13;;;;;;;7.53;3.60;;;0.40;99.90;;;;;;4820173;29;20777;-68
2021/01/15 10:45:39;;;;;;;11.00;3.38;;;0.40;99.90;;;;;;4837309;29;20120;-69
2021/01/15 10:48:06;;;;;;;7.43;3.70;;;0.30;99.90;;;;;;4836577;29;20033;-68
2021/01/15 10:50:33;;;;;;;6.50;3.30;;;0.30;99.90;;;;;;4837619;29;20038;-68
2021/01/15 10:52:58;;;;;;;6.90;3.47;;;0.30;99.90;;;;;;4836313;29;20149;-69
2021/01/15 10:55:26;;;;;;;8.55;4.05;;;0.50;99.90;;;;;;4838421;29;20860;-68
2021/01/15 10:57:52;;;;;;;9.25;4.13;;;0.50;99.90;;;;;;4837857;29;20040;-68
2021/01/15 11:00:18;;;;;;;7.90;3.75;;;0.50;99.90;;;;;;4836058;29;20037;-69
2021/01/15 11:02:51;;;;;;;9.35;3.83;;;0.60;99.90;;;;;;4837782;29;20030;-69
2021/01/15 11:05:17;;;;;;;7.05;3.30;;;0.60;99.90;;;;;;4836971;29;20044;-68
2021/01/15 11:07:45;;;;;;;6.40;2.88;;;0.60;99.90;;;;;;4819934;29;20037;-68
2021/01/15 11:10:12;;;;;;;8.18;3.10;;;0.70;99.90;;;;;;4836737;29;20030;-68
2021/01/15 11:12:39;;;;;;;5.80;3.28;;;0.70;99.90;;;;;;4837953;29;20577;-68
2021/01/15 11:15:06;;;;;;;6.45;3.60;;;0.70;99.90;;;;;;4836093;29;20045;-68
2021/01/15 11:17:31;;;;;;;8.57;3.50;;;0.80;99.90;;;;;;4836678;29;20090;-68
2021/01/15 11:19:57;;;;;;;7.40;3.30;;;0.70;99.90;;;;;;4834708;29;20042;-68
2021/01/15 11:22:23;;;;;;;8.68;4.03;;;0.70;99.90;;;;;;4836009;29;20044;-68
2021/01/15 11:24:49;;;;;;;8.80;3.78;;;0.80;99.90;;;;;;4833376;29;20034;-68
2021/01/15 11:27:15;;;;;;;6.20;3.50;;;0.80;99.90;;;;;;4837195;29;20432;-68
2021/01/15 11:29:40;;;;;;;5.60;3.05;;;0.80;99.90;;;;;;4806493;29;20115;-68
2021/01/15 11:32:06;;;;;;;14.82;8.27;;;0.80;99.90;;;;;;4835145;29;20049;-68
2021/01/15 11:34:32;;;;;;;49.00;40.85;;;0.80;99.90;;;;;;4834630;29;20038;-68
2021/01/15 11:36:58;;;;;;;53.92;43.58;;;0.80;99.90;;;;;;4835711;29;20037;-68
2021/01/15 11:39:24;;;;;;;24.45;18.60;;;0.80;99.90;;;;;;4820276;29;20904;-68
2021/01/15 11:41:52;;;;;;;8.15;4.57;;;0.80;99.90;;;;;;4832529;29;20070;-69
2021/01/15 11:44:18;;;;;;;9.35;4.78;;;0.80;99.90;;;;;;4816257;29;20707;-69
2021/01/15 11:46:44;;;;;;;15.88;8.35;;;0.80;99.90;;;;;;4837419;29;20087;-69
2021/01/15 11:49:10;;;;;;;10.57;4.25;;;0.80;99.90;;;;;;4837034;29;20045;-69
2021/01/15 11:51:35;;;;;;;7.53;4.03;;;0.90;99.90;;;;;;4835893;29;20245;-68
2021/01/15 11:54:01;;;;;;;9.05;4.35;;;0.80;99.90;;;;;;4835287;29;20116;-68
2021/01/15 11:56:27;;;;;;;6.15;3.60;;;0.80;99.90;;;;;;4836930;29;20037;-68
2021/01/15 11:58:53;;;;;;;5.80;3.00;;;0.70;99.90;;;;;;4839324;29;20046;-68
2021/01/15 12:01:20;;;;;;;6.30;3.05;;;0.70;99.90;;;;;;4841474;29;20112;-68
2021/01/15 12:03:46;;;;;;;6.50;3.45;;;0.80;99.90;;;;;;4807276;29;20033;-69
2021/01/15 12:06:12;;;;;;;10.00;3.28;;;0.80;99.90;;;;;;4840793;29;20069;-68
2021/01/15 12:08:41;;;;;;;8.75;3.47;;;0.80;99.90;;;;;;4839869;29;20040;-69
2021/01/15 12:11:07;;;;;;;5.32;3.13;;;0.70;99.90;;;;;;4839567;29;20132;-69
2021/01/15 12:13:34;;;;;;;5.75;3.25;;;0.70;99.90;;;;;;4839253;29;20493;-68
2021/01/15 12:16:01;;;;;;;6.65;3.80;;;0.70;99.90;;;;;;4838923;29;20034;-68
2021/01/15 12:18:28;;;;;;;5.18;3.08;;;0.70;99.90;;;;;;4840524;29;20083;-68
2021/01/15 12:20:54;;;;;;;7.28;3.72;;;0.80;99.90;;;;;;4839081;29;20045;-68
2021/01/15 12:23:21;;;;;;;7.65;3.47;;;0.80;99.90;;;;;;4839484;29;20405;-68
2021/01/15 12:25:48;;;;;;;6.00;3.42;;;0.70;99.90;;;;;;4839790;29;20061;-69
2021/01/15 12:28:15;;;;;;;6.97;3.95;;;0.70;99.90;;;;;;4823474;29;20033;-68
2021/01/15 12:30:42;;;;;;;6.35;3.28;;;0.80;99.90;;;;;;4839569;29;20163;-68
2021/01/15 12:33:10;;;;;;;6.97;3.85;;;0.70;99.90;;;;;;4837881;29;22938;-68
2021/01/15 12:35:37;;;;;;;6.40;3.10;;;0.60;99.90;;;;;;4836558;29;20490;-68
2021/01/15 12:38:29;;;;;;;6.57;4.32;;;0.60;99.90;;;;;;4838309;29;20061;-68
2021/01/15 12:40:55;;;;;;;6.28;3.35;;;0.60;99.90;;;;;;4834303;29;20097;-68
2021/01/15 12:43:21;;;;;;;8.00;3.40;;;0.60;99.90;;;;;;4836999;29;20041;-68
2021/01/15 12:45:49;;;;;;;7.65;3.25;;;0.70;99.90;;;;;;4838902;29;20034;-68
2021/01/15 12:48:16;;;;;;;6.13;3.25;;;0.70;99.90;;;;;;4838563;29;20038;-68
2021/01/15 12:50:44;;;;;;;8.73;4.55;;;0.60;99.90;;;;;;4807739;29;20454;-68
2021/01/15 12:53:10;;;;;;;10.63;4.53;;;0.70;99.90;;;;;;4838332;29;20030;-68
2021/01/15 12:55:37;;;;;;;12.35;4.25;;;0.70;99.90;;;;;;4838847;29;20040;-68
2021/01/15 12:58:03;;;;;;;10.07;4.93;;;0.80;99.90;;;;;;4839704;29;20467;-68